createdAt,value
2016-11-28T00:00:39.581Z,19.47
2016-11-28T00:01:49.590Z,19.48
2016-11-28T00:02:59.651Z,19.5
2016-11-28T00:04:09.085Z,19.47
2016-11-28T00:05:18.777Z,19.47
2016-11-28T00:06:28.787Z,19.44
2016-11-28T00:07:38.789Z,19.44
2016-11-28T00:08:47.872Z,19.39
2016-11-28T00:09:58.192Z,19.4
2016-11-28T00:11:07.891Z,19.44
2016-11-28T00:12:17.299Z,19.43
2016-11-28T00:13:27.650Z,19.47
2016-11-28T00:14:37.751Z,19.48
2016-11-28T00:15:47.472Z,19.46
2016-11-28T00:16:57.822Z,19.47
2016-11-28T00:18:08.212Z,19.44
2016-11-28T00:19:18.515Z,19.39
2016-11-28T00:20:28.221Z,19.43
2016-11-28T00:21:38.559Z,19.36
2016-11-28T00:22:48.540Z,19.36
2016-11-28T00:23:57.932Z,19.33
2016-11-28T00:25:07.951Z,19.37
2016-11-28T00:26:18.340Z,19.37
2016-11-28T00:27:28.093Z,19.39
2016-11-28T00:28:38.101Z,19.37
2016-11-28T00:29:48.413Z,19.33
2016-11-28T00:30:58.311Z,19.37
2016-11-28T00:32:08.641Z,19.37
2016-11-28T00:33:18.102Z,19.36
2016-11-28T00:34:28.391Z,19.44
2016-11-28T00:35:38.421Z,19.43
2016-11-28T00:36:48.431Z,19.33
2016-11-28T00:37:58.775Z,19.36
2016-11-28T00:39:08.487Z,19.33
2016-11-28T00:40:18.501Z,19.36
2016-11-28T00:41:28.524Z,19.41
2016-11-28T00:42:38.282Z,19.4
2016-11-28T00:43:48.719Z,19.36
2016-11-28T00:44:58.130Z,19.43
2016-11-28T00:46:08.450Z,19.4
2016-11-28T00:47:18.502Z,19.33
2016-11-28T00:48:28.804Z,19.46
2016-11-28T00:49:38.818Z,19.39
2016-11-28T00:50:48.551Z,19.4
2016-11-28T00:51:59.012Z,19.43
2016-11-28T00:53:09.033Z,19.44
2016-11-28T00:54:18.436Z,19.39
2016-11-28T00:55:28.739Z,19.33
2016-11-28T00:56:38.765Z,19.37
2016-11-28T00:57:49.080Z,19.31
2016-11-28T00:58:58.772Z,19.36
2016-11-28T01:00:09.120Z,19.41
2016-11-28T01:01:18.207Z,19.33
2016-11-28T01:02:28.008Z,19.4
2016-11-28T01:03:37.741Z,19.41
2016-11-28T01:04:47.158Z,19.33
2016-11-28T01:05:56.950Z,19.33
2016-11-28T01:07:07.071Z,19.33
2016-11-28T01:08:16.455Z,19.44
2016-11-28T01:09:26.520Z,19.46
2016-11-28T01:10:36.511Z,19.32
2016-11-28T01:11:46.823Z,19.46
2016-11-28T01:12:56.839Z,19.37
2016-11-28T01:14:06.698Z,19.39
2016-11-28T01:15:16.087Z,19.37
2016-11-28T01:16:25.794Z,19.39
2016-11-28T01:17:36.106Z,19.32
2016-11-28T01:18:46.418Z,19.33
2016-11-28T01:19:56.187Z,19.37
2016-11-28T01:21:05.884Z,19.32
2016-11-28T01:22:15.887Z,19.37
2016-11-28T01:23:25.597Z,19.36
2016-11-28T01:24:35.602Z,19.37
2016-11-28T01:25:44.978Z,19.37
2016-11-28T01:26:54.987Z,19.39
2016-11-28T01:28:04.688Z,19.37
2016-11-28T01:29:14.771Z,19.31
2016-11-28T01:30:25.108Z,19.33
2016-11-28T01:31:35.227Z,19.39
2016-11-28T01:32:45.544Z,19.33
2016-11-28T01:33:55.262Z,19.39
2016-11-28T01:35:04.745Z,19.39
2016-11-28T01:36:14.141Z,19.39
2016-11-28T01:37:24.206Z,19.37
2016-11-28T01:38:34.228Z,19.37
2016-11-28T01:39:43.918Z,19.36
2016-11-28T01:40:53.619Z,19.39
2016-11-28T01:42:03.695Z,19.41
2016-11-28T01:43:13.428Z,19.37
2016-11-28T01:44:23.118Z,19.4
2016-11-28T01:45:33.177Z,19.39
2016-11-28T01:46:42.874Z,19.41
2016-11-28T01:47:52.939Z,19.4
2016-11-28T01:49:02.966Z,19.37
2016-11-28T01:50:13.308Z,19.41
2016-11-28T01:51:23.036Z,19.33
2016-11-28T01:52:33.047Z,19.47
2016-11-28T01:53:43.066Z,19.36
2016-11-28T01:54:52.767Z,19.37
2016-11-28T01:56:02.167Z,19.33
2016-11-28T01:57:12.251Z,19.31
2016-11-28T01:58:21.339Z,19.39
2016-11-28T01:59:31.156Z,19.36
2016-11-28T02:00:41.514Z,19.39
2016-11-28T02:01:51.292Z,19.39
2016-11-28T02:03:00.989Z,19.32
2016-11-28T02:04:11.005Z,19.39
2016-11-28T02:05:20.693Z,19.44
2016-11-28T02:06:30.770Z,19.37
2016-11-28T02:07:41.090Z,19.39
2016-11-28T02:08:50.847Z,19.36
2016-11-28T02:10:00.668Z,19.33
2016-11-28T02:11:10.725Z,19.36
2016-11-28T02:12:21.045Z,19.36
2016-11-28T02:13:31.183Z,19.32
2016-11-28T02:14:40.992Z,19.43
2016-11-28T02:15:50.991Z,19.33
2016-11-28T02:17:01.007Z,19.29
2016-11-28T02:18:11.420Z,19.29
2016-11-28T02:19:21.117Z,19.36
2016-11-28T02:20:31.315Z,19.36
2016-11-28T02:21:41.138Z,19.33
2016-11-28T02:22:51.459Z,19.37
2016-11-28T02:24:01.916Z,19.37
2016-11-28T02:25:11.922Z,19.37
2016-11-28T02:26:21.316Z,19.37
2016-11-28T02:27:31.763Z,19.37
2016-11-28T02:28:41.805Z,19.31
2016-11-28T02:29:52.287Z,19.28
2016-11-28T02:31:01.671Z,19.32
2016-11-28T02:32:11.779Z,19.39
2016-11-28T02:33:22.110Z,19.36
2016-11-28T02:34:32.205Z,19.32
2016-11-28T02:35:42.547Z,19.37
2016-11-28T02:36:52.262Z,19.43
2016-11-28T02:38:02.305Z,19.36
2016-11-28T02:39:12.378Z,19.4
2016-11-28T02:40:22.377Z,19.37
2016-11-28T02:41:32.539Z,19.4
2016-11-28T02:42:42.537Z,19.37
2016-11-28T02:43:52.553Z,19.41
2016-11-28T02:45:02.268Z,19.37
2016-11-28T02:46:11.023Z,19.36
2016-11-28T02:47:21.033Z,19.36
2016-11-28T02:48:31.081Z,19.32
2016-11-28T02:49:40.817Z,19.29
2016-11-28T02:50:50.907Z,19.36
2016-11-28T02:52:00.390Z,19.26
2016-11-28T02:53:10.406Z,19.36
2016-11-28T02:54:20.518Z,19.31
2016-11-28T02:55:30.345Z,19.39
2016-11-28T02:56:40.368Z,19.31
2016-11-28T02:57:50.367Z,19.39
2016-11-28T02:59:00.356Z,19.29
2016-11-28T03:00:10.086Z,19.32
2016-11-28T03:01:20.209Z,19.39
2016-11-28T03:02:30.659Z,19.37
2016-11-28T03:03:40.667Z,19.32
2016-11-28T03:04:50.369Z,19.33
2016-11-28T03:06:00.427Z,19.32
2016-11-28T03:07:10.446Z,19.37
2016-11-28T03:08:20.459Z,19.39
2016-11-28T03:09:30.517Z,19.32
2016-11-28T03:10:40.267Z,19.33
2016-11-28T03:11:50.286Z,19.36
2016-11-28T03:13:00.697Z,19.4
2016-11-28T03:14:10.697Z,19.29
2016-11-28T03:15:20.387Z,19.31
2016-11-28T03:16:30.185Z,19.36
2016-11-28T03:17:40.194Z,19.39
2016-11-28T03:18:50.225Z,19.31
2016-11-28T03:20:00.556Z,19.37
2016-11-28T03:21:10.893Z,19.26
2016-11-28T03:22:20.377Z,19.36
2016-11-28T03:23:30.389Z,19.32
2016-11-28T03:24:39.801Z,19.39
2016-11-28T03:25:49.819Z,19.29
2016-11-28T03:27:00.231Z,19.32
2016-11-28T03:28:09.969Z,19.39
2016-11-28T03:29:19.974Z,19.37
2016-11-28T03:30:29.875Z,19.37
2016-11-28T03:31:39.880Z,19.41
2016-11-28T03:32:50.209Z,19.37
2016-11-28T03:33:59.895Z,19.36
2016-11-28T03:35:09.654Z,19.33
2016-11-28T03:36:19.334Z,19.37
2016-11-28T03:37:28.722Z,19.36
2016-11-28T03:38:38.417Z,19.32
2016-11-28T03:39:47.969Z,19.32
2016-11-28T03:40:58.286Z,19.43
2016-11-28T03:42:07.982Z,19.32
2016-11-28T03:43:18.281Z,19.37
2016-11-28T03:44:27.668Z,19.32
2016-11-28T03:45:37.878Z,19.32
2016-11-28T03:46:47.899Z,19.32
2016-11-28T03:47:57.920Z,19.33
2016-11-28T03:49:08.065Z,19.28
2016-11-28T03:50:17.822Z,19.37
2016-11-28T03:51:27.629Z,19.36
2016-11-28T03:52:37.329Z,19.43
2016-11-28T03:53:47.727Z,19.4
2016-11-28T03:54:58.027Z,19.32
2016-11-28T03:56:08.109Z,19.31
2016-11-28T03:57:18.179Z,19.37
2016-11-28T03:58:27.967Z,19.32
2016-11-28T03:59:37.806Z,19.33
2016-11-28T04:00:48.126Z,19.39
2016-11-28T04:01:57.542Z,19.28
2016-11-28T04:03:07.349Z,19.29
2016-11-28T04:04:17.187Z,19.39
2016-11-28T04:05:27.264Z,19.33
2016-11-28T04:06:36.649Z,19.36
2016-11-28T04:07:46.668Z,19.32
2016-11-28T04:08:56.398Z,19.39
2016-11-28T04:10:06.409Z,19.37
2016-11-28T04:11:16.433Z,19.4
2016-11-28T04:12:25.907Z,19.33
2016-11-28T04:13:35.969Z,19.33
2016-11-28T04:14:46.130Z,19.37
2016-11-28T04:15:56.441Z,19.36
2016-11-28T04:17:05.854Z,19.37
2016-11-28T04:18:15.259Z,19.31
2016-11-28T04:19:25.305Z,19.41
2016-11-28T04:20:35.056Z,19.4
2016-11-28T04:21:45.375Z,19.41
2016-11-28T04:22:55.709Z,19.44
2016-11-28T04:24:05.717Z,19.44
2016-11-28T04:25:15.518Z,19.44
2016-11-28T04:26:25.231Z,19.44
2016-11-28T04:27:34.952Z,19.48
2016-11-28T04:28:44.358Z,19.41
2016-11-28T04:29:54.365Z,19.5
2016-11-28T04:31:04.689Z,19.51
2016-11-28T04:32:14.726Z,19.5
2016-11-28T04:33:24.429Z,19.5
2016-11-28T04:34:34.107Z,19.47
2016-11-28T04:35:43.857Z,19.54
2016-11-28T04:36:53.552Z,19.54
2016-11-28T04:38:04.530Z,19.51
2016-11-28T04:39:15.007Z,19.48
2016-11-28T04:40:24.424Z,19.5
2016-11-28T04:41:34.133Z,19.48
2016-11-28T04:42:44.965Z,19.51
2016-11-28T04:43:55.018Z,19.56
2016-11-28T04:45:05.339Z,19.55
2016-11-28T04:46:15.377Z,19.58
2016-11-28T04:47:25.418Z,19.41
2016-11-28T04:48:34.802Z,19.55
2016-11-28T04:49:44.794Z,19.58
2016-11-28T04:50:54.785Z,19.59
2016-11-28T04:52:04.795Z,19.56
2016-11-28T04:53:14.909Z,19.5
2016-11-28T04:54:25.228Z,19.58
2016-11-28T04:55:35.032Z,19.51
2016-11-28T04:56:45.105Z,19.59
2016-11-28T04:57:55.091Z,19.59
2016-11-28T04:59:04.848Z,19.56
2016-11-28T05:00:14.866Z,19.58
2016-11-28T05:01:24.571Z,19.41
2016-11-28T05:02:34.709Z,19.61
2016-11-28T05:03:44.552Z,19.55
2016-11-28T05:04:53.483Z,19.46
2016-11-28T05:06:02.916Z,19.37
2016-11-28T05:07:12.693Z,19.39
2016-11-28T05:08:22.696Z,19.47
2016-11-28T05:09:32.397Z,19.48
2016-11-28T05:10:42.396Z,19.56
2016-11-28T05:11:52.717Z,19.5
2016-11-28T05:13:03.085Z,19.48
2016-11-28T05:14:13.155Z,19.55
2016-11-28T05:15:23.294Z,19.47
2016-11-28T05:16:33.299Z,19.44
2016-11-28T05:17:42.698Z,19.47
2016-11-28T05:18:52.717Z,19.44
2016-11-28T05:20:02.416Z,19.44
2016-11-28T05:21:12.865Z,19.44
2016-11-28T05:22:22.887Z,19.33
2016-11-28T05:23:32.645Z,19.41
2016-11-28T05:24:42.357Z,19.39
2016-11-28T05:25:52.420Z,19.36
2016-11-28T05:27:01.835Z,19.37
2016-11-28T05:28:11.636Z,19.32
2016-11-28T05:29:21.712Z,19.36
2016-11-28T05:30:32.087Z,19.33
2016-11-28T05:31:41.541Z,19.36
2016-11-28T05:32:51.231Z,19.39
2016-11-28T05:34:01.572Z,19.26
2016-11-28T05:35:11.686Z,19.31
2016-11-28T05:36:21.809Z,19.36
2016-11-28T05:37:31.420Z,19.28
2016-11-28T05:38:41.578Z,19.29
2016-11-28T05:39:51.946Z,19.32
2016-11-28T05:41:02.316Z,19.31
2016-11-28T05:42:12.351Z,19.29
2016-11-28T05:43:22.116Z,19.28
2016-11-28T05:44:32.258Z,19.37
2016-11-28T05:45:41.977Z,19.36
2016-11-28T05:46:52.367Z,19.36
2016-11-28T05:48:02.177Z,19.39
2016-11-28T05:49:12.544Z,19.33
2016-11-28T05:50:22.295Z,19.32
2016-11-28T05:51:32.295Z,19.37
2016-11-28T05:52:42.630Z,19.36
2016-11-28T05:53:52.472Z,19.46
2016-11-28T05:55:02.857Z,19.51
2016-11-28T05:56:12.279Z,19.51
2016-11-28T05:57:22.625Z,19.5
2016-11-28T05:58:32.564Z,19.39
2016-11-28T05:59:42.897Z,19.5
2016-11-28T06:00:52.607Z,19.5
2016-11-28T06:02:02.307Z,19.47
2016-11-28T06:03:12.425Z,19.47
2016-11-28T06:04:22.455Z,19.5
2016-11-28T06:05:32.699Z,19.61
2016-11-28T06:06:42.408Z,19.59
2016-11-28T06:07:52.745Z,19.5
2016-11-28T06:09:02.808Z,19.5
2016-11-28T06:10:12.826Z,19.61
2016-11-28T06:11:22.976Z,19.62
2016-11-28T06:12:33.330Z,19.61
2016-11-28T06:13:43.327Z,19.61
2016-11-28T06:14:53.317Z,19.55
2016-11-28T06:16:02.709Z,19.56
2016-11-28T06:17:12.429Z,19.58
2016-11-28T06:18:22.779Z,19.62
2016-11-28T06:19:32.827Z,19.59
2016-11-28T06:20:42.999Z,19.59
2016-11-28T06:21:53.317Z,19.66
2016-11-28T06:23:03.128Z,19.63
2016-11-28T06:24:12.521Z,19.56
2016-11-28T06:25:22.549Z,19.61
2016-11-28T06:26:32.317Z,19.58
2016-11-28T06:27:42.069Z,19.63
2016-11-28T06:28:52.133Z,19.5
2016-11-28T06:30:02.469Z,19.46
2016-11-28T06:31:12.878Z,19.55
2016-11-28T06:32:23.209Z,19.55
2016-11-28T06:33:33.221Z,19.51
2016-11-28T06:34:43.226Z,19.51
2016-11-28T06:35:53.279Z,19.5
2016-11-28T06:37:03.300Z,19.54
2016-11-28T06:38:12.687Z,19.54
2016-11-28T06:39:22.718Z,19.47
2016-11-28T06:40:32.828Z,19.44
2016-11-28T06:41:42.647Z,19.48
2016-11-28T06:42:52.990Z,19.5
2016-11-28T06:44:03.054Z,19.55
2016-11-28T06:45:13.095Z,19.51
2016-11-28T06:46:22.489Z,19.41
2016-11-28T06:47:32.801Z,19.46
2016-11-28T06:48:43.270Z,19.41
2016-11-28T06:49:53.294Z,19.43
2016-11-28T06:51:03.629Z,19.43
2016-11-28T06:52:13.326Z,19.44
2016-11-28T06:53:23.708Z,19.44
2016-11-28T06:54:34.030Z,19.36
2016-11-28T06:55:43.120Z,19.36
2016-11-28T06:56:53.190Z,19.41
2016-11-28T06:58:02.888Z,19.33
2016-11-28T06:59:12.698Z,19.31
2016-11-28T07:00:22.749Z,19.39
2016-11-28T07:01:32.771Z,19.32
2016-11-28T07:02:42.788Z,19.39
2016-11-28T07:03:52.250Z,19.26
2016-11-28T07:05:02.281Z,19.39
2016-11-28T07:06:12.640Z,19.32
2016-11-28T07:07:22.986Z,19.39
2016-11-28T07:08:33.093Z,19.37
2016-11-28T07:09:43.084Z,19.4
2016-11-28T07:10:52.471Z,19.36
2016-11-28T07:12:02.509Z,19.25
2016-11-28T07:13:12.209Z,19.31
2016-11-28T07:14:22.204Z,19.32
2016-11-28T07:15:32.919Z,19.31
2016-11-28T07:17:01.909Z,19.31
2016-11-28T07:20:00.641Z,19.33
2016-11-28T07:21:42.411Z,19.4
